createdAt,value
2018-02-04T00:00:24.177Z,88.75
2018-02-04T00:01:24.207Z,88.77
2018-02-04T00:02:24.139Z,88.97
2018-02-04T00:03:24.145Z,88.86
2018-02-04T00:04:24.136Z,88.74
2018-02-04T00:05:24.141Z,89
2018-02-04T00:06:24.141Z,88.74
2018-02-04T00:07:24.139Z,89.18
2018-02-04T00:08:24.158Z,89.13
2018-02-04T00:09:24.187Z,88.94
2018-02-04T00:10:24.212Z,89.01
2018-02-04T00:11:24.120Z,89.12
2018-02-04T00:12:24.582Z,89.12
2018-02-04T00:13:24.151Z,88.97
2018-02-04T00:14:24.176Z,88.9
2018-02-04T00:15:24.193Z,89.1
2018-02-04T00:16:24.186Z,89.12
2018-02-04T00:17:24.170Z,88.95
2018-02-04T00:18:24.211Z,88.99
2018-02-04T00:19:24.154Z,89.04
2018-02-04T00:20:24.144Z,89.02
2018-02-04T00:21:24.145Z,89.27
2018-02-04T00:22:24.185Z,89.33
2018-02-04T00:23:24.159Z,89.42
2018-02-04T00:24:24.155Z,89.28
2018-02-04T00:25:24.146Z,89.59
2018-02-04T00:26:24.133Z,89.6
2018-02-04T00:27:24.133Z,89.57
2018-02-04T00:28:24.190Z,89.46
2018-02-04T00:29:24.313Z,89.49
2018-02-04T00:30:24.371Z,89.67
2018-02-04T00:31:24.350Z,89.57
2018-02-04T00:32:24.359Z,89.46
2018-02-04T00:33:24.288Z,89.62
2018-02-04T00:34:24.291Z,89.64
2018-02-04T00:35:24.332Z,89.7
2018-02-04T00:36:24.277Z,89.55
2018-02-04T00:37:24.345Z,89.64
2018-02-04T00:38:24.309Z,89.72
2018-02-04T00:39:24.326Z,90.09
2018-02-04T00:40:24.288Z,90.04
2018-02-04T00:41:24.318Z,90.03
2018-02-04T00:42:24.349Z,89.81
2018-02-04T00:43:24.292Z,89.74
2018-02-04T00:44:24.305Z,90.07
2018-02-04T00:45:24.326Z,89.99
2018-02-04T00:46:24.304Z,89.92
2018-02-04T00:47:24.350Z,90.02
2018-02-04T00:48:24.284Z,89.85
2018-02-04T00:49:24.313Z,90.17
2018-02-04T00:50:24.310Z,90.2
2018-02-04T00:51:24.287Z,90.21
2018-02-04T00:52:24.343Z,89.98
2018-02-04T00:53:24.267Z,90.36
2018-02-04T00:54:24.318Z,90.29
2018-02-04T00:55:24.300Z,90.34
2018-02-04T00:56:24.273Z,89.97
2018-02-04T00:57:24.290Z,90.11
2018-02-04T00:58:24.261Z,89.99
2018-02-04T00:59:24.306Z,89.99
2018-02-04T01:00:24.475Z,90.24
2018-02-04T01:01:24.383Z,90.2
2018-02-04T01:02:24.425Z,90.48
2018-02-04T01:03:24.393Z,90.53
2018-02-04T01:04:24.448Z,90.44
2018-02-04T01:05:24.396Z,90.38
2018-02-04T01:06:24.537Z,90.26
2018-02-04T01:07:24.398Z,90.1
2018-02-04T01:08:24.378Z,89.98
2018-02-04T01:09:24.390Z,89.95
2018-02-04T01:10:24.392Z,90.06
2018-02-04T01:11:24.428Z,90.01
2018-02-04T01:12:24.447Z,89.78
2018-02-04T01:13:24.440Z,89.71
2018-02-04T01:14:24.394Z,89.88
2018-02-04T01:15:24.413Z,89.57
2018-02-04T01:16:24.991Z,89.62
2018-02-04T01:17:24.404Z,89.6
2018-02-04T01:18:24.417Z,89.77
2018-02-04T01:19:24.402Z,89.57
2018-02-04T01:20:24.397Z,89.6
2018-02-04T01:21:24.738Z,89.8
2018-02-04T01:22:24.413Z,89.83
2018-02-04T01:23:24.398Z,89.64
2018-02-04T01:24:24.376Z,89.83
2018-02-04T01:25:24.402Z,90.12
2018-02-04T01:26:24.408Z,90.02
2018-02-04T01:27:24.393Z,90.24
2018-02-04T01:28:24.390Z,89.95
2018-02-04T01:29:24.384Z,89.93
2018-02-04T01:30:24.425Z,90.3
2018-02-04T01:31:24.506Z,90.18
2018-02-04T01:32:24.485Z,90.44
2018-02-04T01:33:24.505Z,90.5
2018-02-04T01:34:24.489Z,90.28
2018-02-04T01:35:24.468Z,90.58
2018-02-04T01:36:24.508Z,90.65
2018-02-04T01:37:24.502Z,90.42
2018-02-04T01:38:24.490Z,90.76
2018-02-04T01:39:24.499Z,90.64
2018-02-04T01:40:24.475Z,90.74
2018-02-04T01:41:24.477Z,91.06
2018-02-04T01:42:24.484Z,91.09
2018-02-04T01:43:24.515Z,90.99
2018-02-04T01:44:24.500Z,90.88
2018-02-04T01:45:24.518Z,91.13
2018-02-04T01:46:24.525Z,90.86
2018-02-04T01:47:24.490Z,90.66
2018-02-04T01:48:24.485Z,90.64
2018-02-04T01:49:24.540Z,91.08
2018-02-04T01:50:24.547Z,91.03
2018-02-04T01:51:24.508Z,90.85
2018-02-04T01:52:24.504Z,91
2018-02-04T01:53:24.492Z,91.08
2018-02-04T01:54:24.494Z,91.35
2018-02-04T01:55:24.508Z,91.04
2018-02-04T01:56:24.499Z,91.43
2018-02-04T01:57:24.505Z,91.38
2018-02-04T01:58:24.505Z,91.51
2018-02-04T01:59:24.541Z,91.74
2018-02-04T02:00:24.497Z,91.8
2018-02-04T02:01:24.683Z,91.59
2018-02-04T02:02:24.614Z,91.79
2018-02-04T02:03:24.605Z,91.7
2018-02-04T02:04:24.598Z,91.5
2018-02-04T02:05:24.607Z,91.74
2018-02-04T02:06:24.929Z,91.71
2018-02-04T02:07:24.608Z,91.76
2018-02-04T02:08:24.599Z,92.33
2018-02-04T02:09:24.638Z,91.97
2018-02-04T02:10:24.619Z,91.96
2018-02-04T02:11:24.765Z,92.26
2018-02-04T02:12:24.604Z,92.2
2018-02-04T02:13:24.606Z,92.36
2018-02-04T02:14:24.683Z,92.28
2018-02-04T02:15:24.603Z,92.35
2018-02-04T02:16:24.634Z,92.25
2018-02-04T02:17:24.628Z,92.3
2018-02-04T02:18:24.598Z,92.35
2018-02-04T02:19:24.620Z,92.5
2018-02-04T02:20:24.656Z,92.34
2018-02-04T02:21:24.584Z,92.3
2018-02-04T02:22:24.596Z,92.28
2018-02-04T02:23:24.667Z,91.83
2018-02-04T02:24:24.599Z,92.57
2018-02-04T02:25:24.605Z,92.27
2018-02-04T02:26:24.601Z,92.2
2018-02-04T02:27:24.637Z,92.16
2018-02-04T02:28:24.626Z,92.44
2018-02-04T02:29:24.606Z,92.34
2018-02-04T02:30:24.616Z,92.02
2018-02-04T02:31:24.767Z,91.97
2018-02-04T02:32:24.731Z,91.9
2018-02-04T02:33:24.709Z,91.96
2018-02-04T02:34:24.742Z,91.94
2018-02-04T02:35:24.744Z,91.92
2018-02-04T02:36:24.717Z,91.5
2018-02-04T02:37:24.762Z,91.87
2018-02-04T02:38:24.731Z,91.86
2018-02-04T02:39:24.726Z,91.85
2018-02-04T02:40:24.743Z,91.74
2018-02-04T02:41:24.731Z,91.94
2018-02-04T02:42:24.734Z,91.81
2018-02-04T02:43:24.817Z,92.06
2018-02-04T02:44:24.774Z,91.92
2018-02-04T02:45:24.739Z,91.97
2018-02-04T02:46:24.716Z,91.83
2018-02-04T02:47:24.772Z,92
2018-02-04T02:48:24.716Z,91.8
2018-02-04T02:49:24.714Z,91.71
2018-02-04T02:50:24.788Z,91.86
2018-02-04T02:51:24.748Z,92.01
2018-02-04T02:52:24.791Z,92.17
2018-02-04T02:53:24.702Z,92.04
2018-02-04T02:54:24.722Z,92.11
2018-02-04T02:55:24.731Z,92.11
2018-02-04T02:56:24.735Z,92.03
2018-02-04T02:57:24.751Z,92.06
2018-02-04T02:58:24.737Z,91.84
2018-02-04T02:59:24.736Z,91.78
2018-02-04T03:00:25.106Z,92.01
2018-02-04T03:01:24.012Z,91.86
2018-02-04T03:02:24.042Z,92.1
2018-02-04T03:03:24.002Z,92.07
2018-02-04T03:04:24.031Z,92.1
2018-02-04T03:05:24.002Z,92.07
2018-02-04T03:06:24.056Z,91.65
2018-02-04T03:07:23.987Z,91.46
2018-02-04T03:08:24.011Z,91.73
2018-02-04T03:09:23.989Z,91.87
2018-02-04T03:10:23.981Z,92.12
2018-02-04T03:11:24.051Z,92.03
2018-02-04T03:12:24.303Z,91.87
2018-02-04T03:13:24.014Z,91.83
2018-02-04T03:14:24.020Z,91.87
2018-02-04T03:15:24.044Z,92.04
2018-02-04T03:16:24.090Z,91.56
2018-02-04T03:17:24.018Z,91.61
2018-02-04T03:18:24.035Z,91.88
2018-02-04T03:19:24.007Z,91.7
2018-02-04T03:20:23.977Z,91.54
2018-02-04T03:21:24.021Z,91.63
2018-02-04T03:22:24.001Z,91.48
2018-02-04T03:23:24.050Z,91.35
2018-02-04T03:24:24.172Z,91.4
2018-02-04T03:25:24.072Z,91.55
2018-02-04T03:26:24.028Z,91.66
2018-02-04T03:27:24.086Z,91.7
2018-02-04T03:28:24.011Z,91.55
2018-02-04T03:29:24.166Z,91.8
2018-02-04T03:30:24.026Z,91.7
2018-02-04T03:31:24.020Z,91.59
2018-02-04T03:32:24.093Z,91.35
2018-02-04T03:33:24.148Z,91.59
2018-02-04T03:34:24.125Z,91.43
2018-02-04T03:35:24.774Z,91.54
2018-02-04T03:36:24.086Z,91.74
2018-02-04T03:37:24.065Z,91.79
2018-02-04T03:38:24.136Z,91.57
2018-02-04T03:39:24.087Z,91.7
2018-02-04T03:40:24.095Z,91.62
2018-02-04T03:41:24.148Z,91.72
2018-02-04T03:42:24.136Z,91.61
2018-02-04T03:43:24.058Z,91.48
2018-02-04T03:44:24.093Z,91.57
2018-02-04T03:45:24.140Z,91.63
2018-02-04T03:46:24.106Z,91.48
2018-02-04T03:47:24.088Z,91.59
2018-02-04T03:48:24.072Z,91.55
2018-02-04T03:49:24.090Z,91.24
2018-02-04T03:50:24.070Z,91.43
2018-02-04T03:51:24.130Z,91.42
2018-02-04T03:52:24.081Z,91.58
2018-02-04T03:53:24.088Z,91.72
2018-02-04T03:54:24.155Z,91.56
2018-02-04T03:55:24.124Z,91.59
2018-02-04T03:56:24.092Z,91.63
2018-02-04T03:57:24.080Z,91.48
2018-02-04T03:58:24.113Z,91.52
2018-02-04T03:59:24.096Z,91.65
2018-02-04T04:00:24.164Z,91.63
2018-02-04T04:01:24.084Z,91.78
2018-02-04T04:02:24.090Z,91.9
2018-02-04T04:03:24.055Z,91.5
2018-02-04T04:04:24.065Z,91.55
2018-02-04T04:05:24.089Z,91.69
2018-02-04T04:06:24.104Z,91.38
2018-02-04T04:07:24.060Z,91.43
2018-02-04T04:08:24.120Z,91.46
2018-02-04T04:09:24.176Z,91.31
2018-02-04T04:10:24.050Z,91.28
2018-02-04T04:11:24.120Z,91.12
2018-02-04T04:12:24.065Z,91.12
2018-02-04T04:13:24.060Z,91.19
2018-02-04T04:14:24.077Z,91.28
2018-02-04T04:15:24.070Z,91.2
2018-02-04T04:16:24.034Z,91.21
2018-02-04T04:17:24.095Z,91.08
2018-02-04T04:18:24.070Z,91.04
2018-02-04T04:19:24.076Z,91.19
2018-02-04T04:20:24.061Z,91.08
2018-02-04T04:21:24.041Z,91.2
2018-02-04T04:22:24.084Z,91.34
2018-02-04T04:23:24.071Z,91.59
2018-02-04T04:24:24.063Z,91.5
2018-02-04T04:25:24.070Z,91.4
2018-02-04T04:26:24.030Z,91.2
2018-02-04T04:27:24.034Z,91.34
2018-02-04T04:28:24.067Z,91.35
2018-02-04T04:29:24.148Z,91.22
2018-02-04T04:30:24.045Z,90.96
2018-02-04T04:31:24.140Z,91.05
2018-02-04T04:32:24.096Z,91.03
2018-02-04T04:33:24.170Z,91.11
2018-02-04T04:34:24.228Z,91.2
2018-02-04T04:35:24.268Z,91.27
2018-02-04T04:38:24.216Z,91.09
2018-02-04T04:39:24.230Z,91.35
2018-02-04T04:40:24.184Z,91.14
2018-02-04T04:41:24.237Z,91.19
2018-02-04T04:42:24.193Z,91.19
2018-02-04T04:43:24.206Z,91.07
2018-02-04T04:44:24.221Z,91.17
2018-02-04T04:45:24.181Z,91.71
2018-02-04T04:46:24.241Z,91.23
2018-02-04T04:47:24.183Z,91.08
2018-02-04T04:48:24.169Z,91.34
2018-02-04T04:49:24.193Z,91.25
2018-02-04T04:50:24.227Z,91.41
2018-02-04T04:51:24.257Z,91.28
2018-02-04T04:52:24.222Z,91.47
2018-02-04T04:53:24.198Z,91.27
2018-02-04T04:54:24.203Z,91.31
2018-02-04T04:55:24.196Z,91.21
2018-02-04T04:56:24.168Z,91.35
2018-02-04T04:57:24.204Z,91.08
2018-02-04T04:58:24.226Z,91.12
2018-02-04T04:59:24.189Z,91.06
2018-02-04T05:00:24.194Z,91.17
2018-02-04T05:01:24.168Z,91.18
2018-02-04T05:02:24.249Z,91.14
2018-02-04T05:03:24.269Z,91.1
2018-02-04T05:04:24.302Z,91.26
2018-02-04T05:05:24.273Z,91.46
2018-02-04T05:06:24.266Z,91.54
2018-02-04T05:07:24.302Z,91.98
2018-02-04T05:08:24.330Z,91.81
2018-02-04T05:09:24.314Z,91.61
2018-02-04T05:10:24.364Z,91.62
2018-02-04T05:11:24.302Z,91.83
2018-02-04T05:12:24.369Z,92.02
2018-02-04T05:14:24.318Z,91.92
2018-02-04T05:15:24.289Z,91.95
2018-02-04T05:16:24.352Z,91.84
2018-02-04T05:17:24.293Z,92.16
2018-02-04T05:18:24.295Z,92.04
2018-02-04T05:19:24.348Z,91.95
2018-02-04T05:20:24.375Z,91.77
2018-02-04T05:21:24.290Z,91.76
2018-02-04T05:22:24.313Z,91.97
2018-02-04T05:23:24.356Z,91.81
2018-02-04T05:24:24.319Z,91.64
2018-02-04T05:25:24.296Z,91.86
2018-02-04T05:26:24.353Z,91.98
2018-02-04T05:27:24.298Z,92.05
2018-02-04T05:28:24.305Z,91.74
2018-02-04T05:29:24.298Z,91.75
2018-02-04T05:30:24.282Z,91.71
2018-02-04T05:31:24.343Z,91.7
2018-02-04T05:32:24.309Z,91.59
2018-02-04T05:33:24.335Z,91.59
2018-02-04T05:34:24.460Z,91.72
2018-02-04T05:35:24.394Z,91.79
2018-02-04T05:36:24.416Z,91.89
2018-02-04T05:37:24.403Z,91.75
2018-02-04T05:38:24.408Z,91.71
2018-02-04T05:39:24.503Z,91.63
2018-02-04T05:40:24.428Z,91.59
2018-02-04T05:41:24.382Z,91.8
2018-02-04T05:42:24.386Z,91.63
2018-02-04T05:43:24.419Z,91.58
2018-02-04T05:44:24.431Z,91.72
2018-02-04T05:45:24.625Z,91.49
2018-02-04T05:46:24.412Z,91.51
2018-02-04T05:47:24.473Z,91.72
2018-02-04T05:48:24.399Z,91.81
2018-02-04T05:49:24.418Z,91.68
2018-02-04T05:50:24.437Z,91.86
2018-02-04T05:51:24.373Z,91.74
2018-02-04T05:52:24.398Z,91.58
2018-02-04T05:53:24.478Z,91.49
2018-02-04T05:54:24.445Z,91.58
2018-02-04T05:55:24.490Z,91.5
2018-02-04T05:56:24.458Z,91.62
2018-02-04T05:57:24.424Z,91.51
2018-02-04T05:58:24.408Z,91.44
2018-02-04T05:59:24.415Z,91.43
2018-02-04T06:00:24.671Z,91.49
2018-02-04T06:01:24.449Z,91.32
2018-02-04T06:02:24.472Z,91.58
2018-02-04T06:03:24.423Z,91.67
2018-02-04T06:04:24.525Z,91.61
2018-02-04T06:05:24.522Z,91.51
2018-02-04T06:06:24.581Z,91.55
2018-02-04T06:07:24.517Z,91.5
2018-02-04T06:08:24.513Z,91.57
2018-02-04T06:09:24.531Z,91.86
2018-02-04T06:10:24.584Z,91.91
2018-02-04T06:11:24.535Z,92.11
2018-02-04T06:12:24.518Z,92.16
2018-02-04T06:13:24.521Z,91.82
2018-02-04T06:14:24.506Z,91.72
2018-02-04T06:15:24.501Z,91.79
2018-02-04T06:16:24.516Z,92.04
2018-02-04T06:17:24.522Z,91.89
2018-02-04T06:18:24.560Z,91.99
2018-02-04T06:19:24.571Z,91.84
2018-02-04T06:20:24.521Z,91.9
2018-02-04T06:21:24.555Z,91.8
2018-02-04T06:22:24.526Z,91.85
2018-02-04T06:23:24.569Z,91.83
2018-02-04T06:24:24.622Z,92.14
2018-02-04T06:25:24.528Z,92.06
2018-02-04T06:26:24.532Z,91.97
2018-02-04T06:27:24.541Z,91.97
2018-02-04T06:28:24.546Z,92.04
2018-02-04T06:29:24.564Z,92.02
2018-02-04T06:30:24.527Z,92.29
2018-02-04T06:31:24.544Z,92.35
2018-02-04T06:32:24.516Z,91.99
2018-02-04T06:33:24.546Z,92.04
2018-02-04T06:34:24.632Z,92.21
2018-02-04T06:35:24.664Z,92.45
2018-02-04T06:36:24.611Z,92.29
2018-02-04T06:37:24.643Z,92.09
2018-02-04T06:38:24.699Z,92.35
2018-02-04T06:39:24.661Z,92.15
2018-02-04T06:40:24.620Z,91.99
2018-02-04T06:41:24.642Z,92.07
2018-02-04T06:42:24.648Z,92.26
2018-02-04T06:43:24.691Z,92.43
2018-02-04T06:44:24.636Z,92.24
2018-02-04T06:45:24.688Z,92.29
2018-02-04T06:46:24.674Z,92.24
2018-02-04T06:47:24.655Z,92.46
2018-02-04T06:48:24.663Z,92.26
2018-02-04T06:49:24.658Z,92.09
2018-02-04T06:50:24.677Z,92.01
2018-02-04T06:51:24.672Z,92.42
2018-02-04T06:52:24.654Z,92.02
2018-02-04T06:53:24.660Z,92.29
2018-02-04T06:54:24.636Z,92.28
2018-02-04T06:55:24.650Z,92.46
2018-02-04T06:56:24.652Z,92.45
2018-02-04T06:57:24.775Z,92.49
2018-02-04T06:58:24.656Z,92.54
2018-02-04T06:59:24.852Z,92.38
2018-02-04T07:00:24.663Z,92.52
2018-02-04T07:01:24.693Z,92.57
2018-02-04T07:02:24.685Z,92.72
2018-02-04T07:03:24.706Z,92.54
2018-02-04T07:04:24.683Z,93.09
2018-02-04T07:05:24.743Z,92.65
2018-02-04T07:06:24.752Z,92.9
2018-02-04T07:07:24.734Z,92.56
2018-02-04T07:08:24.810Z,92.6
2018-02-04T07:09:24.743Z,92.7
2018-02-04T07:10:24.756Z,92.83
2018-02-04T07:11:24.753Z,92.66
2018-02-04T07:12:24.800Z,92.55
2018-02-04T07:13:24.731Z,92.92
2018-02-04T07:14:24.828Z,92.64
2018-02-04T07:15:24.778Z,92.92
2018-02-04T07:16:24.801Z,93.12
2018-02-04T07:17:24.762Z,93.14
2018-02-04T07:18:24.756Z,92.85
2018-02-04T07:19:24.764Z,92.61
2018-02-04T07:20:24.794Z,92.86
2018-02-04T07:21:24.740Z,92.7
2018-02-04T07:22:24.731Z,92.68
2018-02-04T07:23:24.730Z,92.57
2018-02-04T07:24:24.774Z,92.48
2018-02-04T07:25:24.736Z,92.57
2018-02-04T07:26:24.760Z,92.6
2018-02-04T07:27:24.774Z,92.71
2018-02-04T07:28:24.761Z,92.7
2018-02-04T07:29:24.740Z,92.57
2018-02-04T07:30:24.802Z,92.34
2018-02-04T07:31:24.753Z,92.43
2018-02-04T07:32:24.779Z,92.5
2018-02-04T07:33:24.775Z,92.43
2018-02-04T07:34:24.773Z,92.73
2018-02-04T07:35:24.762Z,92.39
2018-02-04T07:36:23.848Z,92.74
2018-02-04T07:37:23.852Z,92.59
2018-02-04T07:38:23.843Z,92.38
2018-02-04T07:39:23.830Z,92.72
2018-02-04T07:40:24.015Z,92.93
2018-02-04T07:41:23.837Z,93.03
2018-02-04T07:42:23.846Z,92.89
2018-02-04T07:43:23.854Z,92.72
2018-02-04T07:44:23.845Z,92.61
2018-02-04T07:45:23.852Z,92.64
2018-02-04T07:46:23.844Z,92.84
2018-02-04T07:47:23.874Z,92.71
2018-02-04T07:48:23.860Z,92.78
2018-02-04T07:49:23.844Z,92.58
2018-02-04T07:50:23.883Z,92.73
2018-02-04T07:51:23.847Z,92.75
2018-02-04T07:52:23.827Z,92.66
2018-02-04T07:53:24.033Z,92.56
2018-02-04T07:54:23.894Z,92.48
2018-02-04T07:55:23.858Z,92.83
2018-02-04T07:56:23.831Z,92.75
2018-02-04T07:57:23.871Z,92.81
2018-02-04T07:58:23.848Z,93.12
2018-02-04T07:59:23.897Z,92.79
2018-02-04T08:00:23.836Z,92.86
2018-02-04T08:01:23.877Z,92.85
2018-02-04T08:02:23.860Z,92.82
2018-02-04T08:03:23.881Z,92.8
2018-02-04T08:04:23.847Z,93.1
2018-02-04T08:05:23.875Z,92.99
2018-02-04T08:06:23.849Z,93.11
2018-02-04T08:07:23.848Z,92.97
2018-02-04T08:08:23.899Z,93
2018-02-04T08:09:23.910Z,92.96
2018-02-04T08:10:23.872Z,93.01
2018-02-04T08:11:23.925Z,93.04
2018-02-04T08:12:24.009Z,92.93
2018-02-04T08:13:24.080Z,92.92
2018-02-04T08:14:24.101Z,92.62
2018-02-04T08:15:23.869Z,92.47
2018-02-04T08:16:23.888Z,92.68
2018-02-04T08:17:23.882Z,92.84
2018-02-04T08:18:23.893Z,92.94
2018-02-04T08:19:23.931Z,93.1
2018-02-04T08:20:23.890Z,92.78
2018-02-04T08:21:23.909Z,92.87
2018-02-04T08:22:23.873Z,93.15
2018-02-04T08:23:23.930Z,93.12
2018-02-04T08:24:23.904Z,92.91
2018-02-04T08:25:23.916Z,93.02
2018-02-04T08:26:23.915Z,92.95
2018-02-04T08:27:23.910Z,93.6
2018-02-04T08:28:23.862Z,93.3
2018-02-04T08:29:23.876Z,92.98
2018-02-04T08:30:23.868Z,93.06
2018-02-04T08:31:23.903Z,93.18
2018-02-04T08:32:23.890Z,93.29
2018-02-04T08:33:23.913Z,92.8
2018-02-04T08:34:23.904Z,92.78
2018-02-04T08:35:23.890Z,93.1
2018-02-04T08:36:23.980Z,93.28
2018-02-04T08:37:23.898Z,93.4
2018-02-04T08:38:23.947Z,93.38
2018-02-04T08:39:23.942Z,92.72
2018-02-04T08:40:23.947Z,92.72
2018-02-04T08:41:23.930Z,92.28
2018-02-04T08:42:23.936Z,92.37
2018-02-04T08:43:23.958Z,92.46
2018-02-04T08:44:23.943Z,92.52
2018-02-04T08:45:23.963Z,92.32
2018-02-04T08:46:24.036Z,92.23
2018-02-04T08:47:23.958Z,92.22
2018-02-04T08:48:23.930Z,92.03
2018-02-04T08:49:24.010Z,91.86
2018-02-04T08:50:23.957Z,92.12
2018-02-04T08:51:23.965Z,92.04
2018-02-04T08:52:23.964Z,92.38
2018-02-04T08:53:23.980Z,92.38
2018-02-04T08:54:23.935Z,92.55
2018-02-04T08:55:23.970Z,92.66
2018-02-04T08:56:23.959Z,92.79
2018-02-04T08:57:23.949Z,92.7
2018-02-04T08:58:23.944Z,92.81
2018-02-04T08:59:23.942Z,92.73
2018-02-04T09:00:23.975Z,92.7
2018-02-04T09:01:23.987Z,92.81
2018-02-04T09:02:24.114Z,93.02
2018-02-04T09:03:23.999Z,92.57
2018-02-04T09:04:23.941Z,92.7
2018-02-04T09:05:23.976Z,92.66
2018-02-04T09:06:23.954Z,92.66
2018-02-04T09:07:23.988Z,92.8
2018-02-04T09:08:24.106Z,92.79
2018-02-04T09:09:24.113Z,92.77
2018-02-04T09:10:24.109Z,92.69
2018-02-04T09:11:24.132Z,92.51
2018-02-04T09:12:24.173Z,92.66
2018-02-04T09:13:24.087Z,92.39
2018-02-04T09:14:24.104Z,92.45
2018-02-04T09:15:24.113Z,92.6
2018-02-04T09:16:24.110Z,92.47
2018-02-04T09:17:24.114Z,92.42
2018-02-04T09:18:24.138Z,92.51
2018-02-04T09:19:24.116Z,92.49
2018-02-04T09:20:24.398Z,92.58
2018-02-04T09:21:24.175Z,92.65
2018-02-04T09:22:24.219Z,93.16
2018-02-04T09:23:24.134Z,92.9
2018-02-04T09:24:24.154Z,93.44
2018-02-04T09:25:24.155Z,93.69
2018-02-04T09:26:24.135Z,93.58
2018-02-04T09:27:24.154Z,93.66
2018-02-04T09:28:24.128Z,93.61
2018-02-04T09:29:24.165Z,93.61
2018-02-04T09:30:24.160Z,93.48
2018-02-04T09:31:24.153Z,93.53
2018-02-04T09:32:24.158Z,93.53
2018-02-04T09:33:24.172Z,93.56
2018-02-04T09:34:24.183Z,93.53
2018-02-04T09:35:24.159Z,93.48
2018-02-04T09:36:24.193Z,93.57
2018-02-04T09:37:24.121Z,93.45
2018-02-04T09:38:24.135Z,93.46
2018-02-04T09:39:24.137Z,93.65
2018-02-04T09:40:24.147Z,93.64
2018-02-04T09:41:24.109Z,93.53
2018-02-04T09:42:24.164Z,93.5
2018-02-04T09:43:24.125Z,93.46
2018-02-04T09:44:24.140Z,93.33
2018-02-04T09:45:24.155Z,93.42
2018-02-04T09:46:24.143Z,93.09
2018-02-04T09:47:24.172Z,93.24
2018-02-04T09:48:24.232Z,93.29
2018-02-04T09:49:24.166Z,93.27
2018-02-04T09:50:24.216Z,93.19
2018-02-04T09:51:24.147Z,93.2
2018-02-04T09:52:24.197Z,93.2
2018-02-04T09:53:24.155Z,93.21
2018-02-04T09:54:24.131Z,93.14
2018-02-04T09:55:24.424Z,93.21
2018-02-04T09:56:24.160Z,92.99
2018-02-04T09:57:24.258Z,92.96
2018-02-04T09:58:24.148Z,93.03
2018-02-04T09:59:24.180Z,92.95
2018-02-04T10:00:24.156Z,92.96
2018-02-04T10:01:24.146Z,92.92
2018-02-04T10:02:24.142Z,92.89
2018-02-04T10:03:24.185Z,93.15
2018-02-04T10:04:24.247Z,93.69
2018-02-04T10:05:24.328Z,93.23
2018-02-04T10:06:24.286Z,92.99
2018-02-04T10:07:24.317Z,93.38
2018-02-04T10:08:24.193Z,93.19
2018-02-04T10:09:24.192Z,93.28
2018-02-04T10:10:24.094Z,93.44
2018-02-04T10:11:24.155Z,93.37
2018-02-04T10:12:24.341Z,93.45
2018-02-04T10:13:24.096Z,93.53
2018-02-04T10:14:24.153Z,93.53
2018-02-04T10:15:24.143Z,93.11
2018-02-04T10:16:24.086Z,93.48
2018-02-04T10:17:24.123Z,93.64
2018-02-04T10:18:24.114Z,93.38
2018-02-04T10:19:24.097Z,93.45
2018-02-04T10:20:24.107Z,93.61
2018-02-04T10:21:24.117Z,93.97
2018-02-04T10:22:24.099Z,94.06
2018-02-04T10:23:24.115Z,94.65
2018-02-04T10:24:32.090Z,94.97
2018-02-04T10:25:24.174Z,94.25
2018-02-04T10:26:24.149Z,94.13
2018-02-04T10:27:24.134Z,94.44
2018-02-04T10:28:24.127Z,94.81
2018-02-04T10:29:24.122Z,95.29
2018-02-04T10:30:24.167Z,95.54
2018-02-04T10:31:24.181Z,95.91
2018-02-04T10:32:24.115Z,96.1
2018-02-04T10:33:28.293Z,95.78
2018-02-04T10:34:24.142Z,95.71
2018-02-04T10:35:24.116Z,96.05
2018-02-04T10:36:24.154Z,96.17
2018-02-04T10:37:24.120Z,96.06
2018-02-04T10:38:24.121Z,96.22
2018-02-04T10:39:24.149Z,96.26
2018-02-04T10:40:24.261Z,96.27
2018-02-04T10:41:24.294Z,96.11
2018-02-04T10:42:24.236Z,95.99
2018-02-04T10:43:24.243Z,96.04
2018-02-04T10:44:24.261Z,96.17
2018-02-04T10:45:24.249Z,96.44
2018-02-04T10:46:24.251Z,95.93
2018-02-04T10:47:24.259Z,96.1
2018-02-04T10:48:24.264Z,96.2
2018-02-04T10:49:24.276Z,96.36
2018-02-04T10:50:24.300Z,96.4
2018-02-04T10:51:24.273Z,96.42
2018-02-04T10:52:24.294Z,96.4
2018-02-04T10:53:24.269Z,96.57
2018-02-04T10:54:24.252Z,96.67
2018-02-04T10:55:24.288Z,96.2
2018-02-04T10:56:24.269Z,96.05
2018-02-04T10:57:24.257Z,95.87
2018-02-04T10:58:24.245Z,96.11
2018-02-04T10:59:24.261Z,95.95
2018-02-04T11:00:24.292Z,95.53
2018-02-04T11:01:24.253Z,96.04
2018-02-04T11:02:24.240Z,95.65
2018-02-04T11:03:24.261Z,96.19
2018-02-04T11:04:24.254Z,95.24
2018-02-04T11:05:24.251Z,94.89
2018-02-04T11:06:24.267Z,95.21
2018-02-04T11:07:24.256Z,94.72
2018-02-04T11:08:24.242Z,94.22
2018-02-04T11:09:24.253Z,93.88
2018-02-04T11:10:24.258Z,93.94
2018-02-04T11:11:24.303Z,93.62
2018-02-04T11:12:24.298Z,93.16
2018-02-04T11:13:24.303Z,93.37
2018-02-04T11:14:24.313Z,92.51
2018-02-04T11:15:24.341Z,92.18
2018-02-04T11:16:24.676Z,92.55
2018-02-04T11:17:24.341Z,92.06
2018-02-04T11:18:24.314Z,92.13
2018-02-04T11:19:24.315Z,92.04
2018-02-04T11:20:24.318Z,91.52
2018-02-04T11:21:24.361Z,91.71
2018-02-04T11:22:24.320Z,91.87
2018-02-04T11:23:24.316Z,92.18
2018-02-04T11:24:24.326Z,92.82
2018-02-04T11:25:24.339Z,92.69
2018-02-04T11:26:24.322Z,92.93
2018-02-04T11:27:24.302Z,92.3
2018-02-04T11:28:24.302Z,93.46
2018-02-04T11:29:24.312Z,92.68
2018-02-04T11:30:24.314Z,92.62
2018-02-04T11:31:24.342Z,92.69
2018-02-04T11:32:24.403Z,93.49
2018-02-04T11:33:24.334Z,93.48
2018-02-04T11:34:24.298Z,92.73
2018-02-04T11:35:24.306Z,92.79
2018-02-04T11:36:24.314Z,93.13
2018-02-04T11:37:24.309Z,92.88
2018-02-04T11:38:24.315Z,92.8
2018-02-04T11:39:24.342Z,92.59
2018-02-04T11:40:24.331Z,91.99
2018-02-04T11:41:24.318Z,92.22
2018-02-04T11:42:24.424Z,92.58
2018-02-04T11:43:24.060Z,92.46
2018-02-04T11:44:24.052Z,92.03
2018-02-04T11:45:24.173Z,90.54
2018-02-04T11:46:24.055Z,91.47
2018-02-04T11:47:24.062Z,90.78
2018-02-04T11:48:24.068Z,91.69
2018-02-04T11:49:24.096Z,91.47
2018-02-04T11:50:24.103Z,91.97
2018-02-04T11:51:24.063Z,92.16
2018-02-04T11:52:24.095Z,92.67
2018-02-04T11:53:24.065Z,92.33
2018-02-04T11:54:24.081Z,92.3
2018-02-04T11:55:24.066Z,92.78
2018-02-04T11:56:24.094Z,92.3
2018-02-04T11:57:24.051Z,92.05
2018-02-04T11:58:24.070Z,91.55
2018-02-04T11:59:24.099Z,92.17
2018-02-04T12:00:24.055Z,91.86
2018-02-04T12:01:24.056Z,91.92
2018-02-04T12:02:24.095Z,91.18
2018-02-04T12:03:24.062Z,90.2
2018-02-04T12:04:24.086Z,90.92
2018-02-04T12:05:24.452Z,91.65
2018-02-04T12:06:24.090Z,90.9
2018-02-04T12:07:24.086Z,90.46
2018-02-04T12:08:24.065Z,91.21
2018-02-04T12:09:24.100Z,91
2018-02-04T12:10:24.398Z,90.2
2018-02-04T12:11:24.063Z,90.74
2018-02-04T12:12:24.827Z,91.13
2018-02-04T12:13:24.820Z,89.77
2018-02-04T12:14:24.809Z,90.46
2018-02-04T12:15:24.841Z,91.2
2018-02-04T12:16:24.828Z,90.71
2018-02-04T12:17:24.840Z,89.64
2018-02-04T12:18:24.859Z,89.85
2018-02-04T12:19:24.922Z,90.44
2018-02-04T12:20:24.861Z,89.54
2018-02-04T12:21:25.000Z,90.17
2018-02-04T12:22:24.838Z,90.57
2018-02-04T12:23:24.825Z,90.01
2018-02-04T12:24:24.834Z,90.07
2018-02-04T12:25:24.817Z,90.7
2018-02-04T12:26:24.869Z,89.65
2018-02-04T12:27:24.866Z,89.91
2018-02-04T12:28:24.842Z,90.7
2018-02-04T12:29:24.848Z,91.17
2018-02-04T12:30:24.881Z,88.99
2018-02-04T12:31:25.158Z,89.55
2018-02-04T12:32:24.836Z,89.95
2018-02-04T12:33:24.876Z,89.31
2018-02-04T12:34:24.920Z,88.61
2018-02-04T12:35:24.955Z,89.99
2018-02-04T12:36:24.973Z,88.8
2018-02-04T12:37:24.983Z,87.82
2018-02-04T12:38:26.090Z,87.72
2018-02-04T12:39:24.952Z,88.43
2018-02-04T12:40:24.891Z,88.62
2018-02-04T12:41:25.171Z,89.11
2018-02-04T12:42:25.002Z,87.76
2018-02-04T12:43:24.560Z,87.56
2018-02-04T12:44:24.547Z,88.19
2018-02-04T12:45:24.536Z,89.07
2018-02-04T12:46:24.583Z,89.3
2018-02-04T12:47:24.563Z,89.07
2018-02-04T12:48:24.575Z,88.69
2018-02-04T12:49:24.568Z,88.92
2018-02-04T12:50:24.616Z,87.2
2018-02-04T12:51:24.558Z,87.53
2018-02-04T12:52:24.600Z,87.91
2018-02-04T12:53:24.635Z,87.96
2018-02-04T12:54:24.600Z,88.07
2018-02-04T12:55:24.584Z,87.7
2018-02-04T12:56:24.665Z,88.51
2018-02-04T12:57:24.560Z,88.11
2018-02-04T12:58:24.574Z,87.84
2018-02-04T12:59:24.613Z,87.8